Time;durP1;ratioP1;P1;durP2;ratioP2;P2;SDS_P1;SDS_P2;PMS_P1;PMS_P2;Temp;Humidity;BMP_temperature;BMP_pressure;BME280_temperature;BME280_humidity;BME280_pressure;Samples;Min_cycle;Max_cycle;Signal;HPM_P1;HPM_P2
2022/08/09 00:00:30;;;;;;;2.83;0.70;;;13.00;99.90;;;;;;5032341;28;20511;-74
2022/08/09 00:03:00;;;;;;;3.17;0.70;;;13.00;99.90;;;;;;5031947;28;20190;-73
2022/08/09 00:05:31;;;;;;;4.40;0.98;;;13.00;99.90;;;;;;5031761;28;20662;-76
2022/08/09 00:08:02;;;;;;;3.25;0.60;;;13.10;99.90;;;;;;5028722;28;20198;-75
2022/08/09 00:10:33;;;;;;;1.02;0.52;;;13.10;99.90;;;;;;5021727;28;20182;-74
2022/08/09 00:13:05;;;;;;;1.23;0.68;;;13.10;99.90;;;;;;5029311;28;20205;-76
2022/08/09 00:15:39;;;;;;;1.65;0.73;;;13.20;99.90;;;;;;5027686;28;20198;-77
2022/08/09 00:18:16;;;;;;;3.00;0.63;;;13.20;99.90;;;;;;5031214;28;20196;-77
2022/08/09 00:20:47;;;;;;;3.92;0.80;;;13.20;99.90;;;;;;5031826;28;20614;-77
2022/08/09 00:23:18;;;;;;;1.42;0.60;;;13.40;99.90;;;;;;5031272;28;20633;-77
2022/08/09 00:25:48;;;;;;;3.40;0.60;;;13.50;99.90;;;;;;5031445;28;20225;-77
2022/08/09 00:28:21;;;;;;;1.10;0.50;;;13.80;99.90;;;;;;5027332;28;20198;-77
2022/08/09 00:30:55;;;;;;;3.15;0.63;;;13.90;99.90;;;;;;5024655;28;20186;-76
2022/08/09 00:33:26;;;;;;;2.45;0.60;;;14.10;99.90;;;;;;5030160;28;20665;-74
2022/08/09 00:35:58;;;;;;;1.58;0.55;;;14.10;99.90;;;;;;5022074;28;20369;-75
2022/08/09 00:38:29;;;;;;;2.20;0.57;;;14.10;99.90;;;;;;5031072;28;20301;-75
2022/08/09 00:40:59;;;;;;;2.97;0.80;;;14.20;99.90;;;;;;5030818;28;20195;-75
2022/08/09 00:43:33;;;;;;;3.03;0.60;;;14.20;99.90;;;;;;5030163;28;20202;-77
2022/08/09 00:46:07;;;;;;;1.95;0.60;;;14.20;99.90;;;;;;5024983;28;20187;-76
2022/08/09 00:48:38;;;;;;;1.58;0.98;;;14.10;99.90;;;;;;5031056;28;20186;-77
2022/08/09 00:51:09;;;;;;;1.40;0.50;;;14.10;99.90;;;;;;5029326;28;20198;-76
2022/08/09 00:53:40;;;;;;;1.80;0.70;;;14.20;99.90;;;;;;5027880;28;20225;-76
2022/08/09 00:56:12;;;;;;;1.83;0.70;;;14.30;99.90;;;;;;5031242;28;20191;-76
2022/08/09 00:58:43;;;;;;;2.63;0.65;;;14.30;99.90;;;;;;5031051;28;20214;-74
2022/08/09 01:01:25;;;;;;;2.40;0.55;;;14.20;99.90;;;;;;5027833;28;20548;-75
2022/08/09 01:04:00;;;;;;;2.63;0.50;;;14.20;99.90;;;;;;5031301;28;20656;-77
2022/08/09 01:06:37;;;;;;;2.33;0.50;;;14.30;99.90;;;;;;5031580;28;20191;-77
2022/08/09 01:09:18;;;;;;;2.63;0.88;;;14.40;99.90;;;;;;5023522;28;20654;-77
2022/08/09 01:12:00;;;;;;;1.77;0.70;;;14.70;99.90;;;;;;5031230;28;20194;-77
2022/08/09 01:14:34;;;;;;;1.33;0.60;;;14.90;99.90;;;;;;5031588;28;20214;-78
2022/08/09 01:17:11;;;;;;;0.77;0.50;;;15.00;99.90;;;;;;5031148;28;20192;-76
2022/08/09 01:19:52;;;;;;;1.25;0.43;;;15.00;99.90;;;;;;5031326;28;20186;-76
2022/08/09 01:22:50;;;;;;;0.80;0.47;;;15.00;99.90;;;;;;5024350;28;20190;-77
2022/08/09 01:25:35;;;;;;;1.77;0.60;;;15.00;99.90;;;;;;5023039;28;20203;-76
2022/08/09 01:28:10;;;;;;;2.35;0.40;;;14.90;99.90;;;;;;5030974;28;20566;-77
2022/08/09 01:30:42;;;;;;;2.17;0.57;;;14.90;99.90;;;;;;5031134;28;20186;-75
2022/08/09 01:33:14;;;;;;;2.55;0.60;;;15.10;99.90;;;;;;5031029;28;20661;-77
2022/08/09 01:35:52;;;;;;;1.52;0.43;;;15.10;99.90;;;;;;5033243;28;20214;-78
2022/08/09 01:38:25;;;;;;;1.92;0.40;;;15.20;99.90;;;;;;5026339;28;20317;-77
2022/08/09 01:41:00;;;;;;;3.13;0.50;;;15.40;99.90;;;;;;5036444;28;20211;-77
2022/08/09 01:43:34;;;;;;;4.63;0.70;;;15.50;99.90;;;;;;5034747;28;20186;-77
2022/08/09 01:46:05;;;;;;;2.92;0.30;;;15.60;99.90;;;;;;5034353;28;20190;-77
2022/08/09 01:48:38;;;;;;;2.08;0.82;;;15.60;99.90;;;;;;5034085;28;20197;-78
2022/08/09 01:51:10;;;;;;;1.20;0.52;;;15.70;99.90;;;;;;5035226;28;20228;-78
2022/08/09 01:53:42;;;;;;;0.60;0.40;;;15.90;99.90;;;;;;5034626;28;20532;-73
2022/08/09 01:56:13;;;;;;;0.73;0.40;;;15.90;99.90;;;;;;5034018;28;20197;-73
2022/08/09 01:58:47;;;;;;;1.63;0.55;;;16.10;99.90;;;;;;5034153;28;20574;-73
2022/08/09 02:01:19;;;;;;;2.30;0.40;;;16.20;99.90;;;;;;5032156;28;20194;-77
2022/08/09 02:03:51;;;;;;;1.65;0.30;;;16.30;99.90;;;;;;5034262;28;20204;-76
2022/08/09 02:07:07;;;;;;;4.25;0.70;;;16.40;99.90;;;;;;5034265;28;20197;-73
2022/08/09 02:09:17;;;;;;;2.25;0.40;;;16.50;99.90;;;;;;5032165;28;20212;-74
2022/08/09 02:11:48;;;;;;;1.90;0.30;;;16.70;99.90;;;;;;5030669;28;20218;-75
2022/08/09 02:14:24;;;;;;;1.83;0.50;;;16.90;99.90;;;;;;5032553;28;20226;-74
2022/08/09 02:16:56;;;;;;;1.00;0.40;;;16.80;99.90;;;;;;5031459;28;20537;-75
2022/08/09 02:19:27;;;;;;;2.58;0.68;;;16.50;99.90;;;;;;5033126;28;20676;-75
2022/08/09 02:22:01;;;;;;;1.13;0.40;;;16.30;99.90;;;;;;5032786;28;20277;-75
2022/08/09 02:24:36;;;;;;;0.50;0.30;;;16.10;99.90;;;;;;5032470;28;20198;-73
2022/08/09 02:27:09;;;;;;;2.80;0.50;;;16.20;99.90;;;;;;5033819;28;20224;-73
2022/08/09 02:29:47;;;;;;;0.57;0.30;;;16.30;99.90;;;;;;5032584;28;20198;-73
2022/08/09 02:32:20;;;;;;;3.03;0.30;;;16.30;99.90;;;;;;5029625;28;20261;-75
2022/08/09 02:34:55;;;;;;;2.67;0.43;;;16.20;99.90;;;;;;5031706;28;20301;-75
2022/08/09 02:37:29;;;;;;;3.60;0.50;;;16.30;99.90;;;;;;5029617;28;20202;-74
2022/08/09 02:40:04;;;;;;;1.63;0.70;;;16.40;99.90;;;;;;5029062;28;20304;-76
2022/08/09 02:42:38;;;;;;;1.75;0.50;;;16.50;99.90;;;;;;5029765;28;20202;-74
2022/08/09 02:45:15;;;;;;;1.15;0.35;;;16.60;99.90;;;;;;5032950;28;20217;-74
2022/08/09 02:47:46;;;;;;;2.20;0.57;;;16.70;99.90;;;;;;5030535;28;20186;-74
2022/08/09 02:50:22;;;;;;;2.05;0.60;;;16.70;99.90;;;;;;5032971;28;20194;-76
2022/08/09 02:52:56;;;;;;;2.65;0.50;;;16.80;99.90;;;;;;5032549;28;20555;-74
2022/08/09 02:55:28;;;;;;;3.42;0.68;;;16.90;99.90;;;;;;5032856;28;20218;-74
2022/08/09 02:58:02;;;;;;;1.33;0.50;;;16.80;99.90;;;;;;5032610;28;20218;-73
2022/08/09 03:00:35;;;;;;;1.42;0.32;;;16.90;99.90;;;;;;5032727;28;20281;-72
2022/08/09 03:03:09;;;;;;;2.58;0.47;;;16.80;99.90;;;;;;5024632;28;20194;-74
2022/08/09 03:05:41;;;;;;;2.40;0.50;;;16.90;99.90;;;;;;5033159;28;20194;-73
2022/08/09 03:08:13;;;;;;;3.28;0.70;;;16.90;99.90;;;;;;5026104;28;20195;-72
2022/08/09 03:10:46;;;;;;;4.78;1.17;;;16.90;99.90;;;;;;5031497;28;20201;-73
2022/08/09 03:13:18;;;;;;;5.13;0.60;;;16.80;99.90;;;;;;5026588;28;20681;-74
2022/08/09 03:15:52;;;;;;;2.35;0.55;;;16.70;99.90;;;;;;5031703;28;20218;-73
2022/08/09 03:18:24;;;;;;;1.83;0.43;;;16.50;99.90;;;;;;5032550;28;20194;-73
2022/08/09 03:20:55;;;;;;;2.95;0.60;;;16.20;99.90;;;;;;5032110;28;20545;-74
2022/08/09 03:23:26;;;;;;;1.83;0.77;;;16.00;99.90;;;;;;5031529;28;20635;-74
2022/08/09 03:25:57;;;;;;;3.67;0.50;;;15.90;99.90;;;;;;5032014;28;20654;-73
2022/08/09 03:28:29;;;;;;;1.10;0.60;;;16.10;99.90;;;;;;5034847;28;20637;-73
2022/08/09 03:31:02;;;;;;;2.35;0.60;;;16.30;99.90;;;;;;5030226;28;20606;-74
2022/08/09 03:33:34;;;;;;;2.25;0.38;;;16.50;99.90;;;;;;5033394;28;20202;-74
2022/08/09 03:36:06;;;;;;;2.05;0.40;;;16.60;99.90;;;;;;5032254;28;20235;-75
2022/08/09 03:38:37;;;;;;;1.65;0.40;;;16.50;99.90;;;;;;5032009;28;20226;-72
2022/08/09 03:41:08;;;;;;;0.88;0.30;;;16.40;99.90;;;;;;5032410;28;20197;-72
2022/08/09 03:43:39;;;;;;;3.20;0.47;;;16.20;99.90;;;;;;5032551;28;20195;-73
2022/08/09 03:46:11;;;;;;;1.17;0.50;;;16.20;99.90;;;;;;5030520;28;20206;-73
2022/08/09 03:48:43;;;;;;;1.55;0.30;;;16.10;99.90;;;;;;5030650;28;20201;-76
2022/08/09 03:51:15;;;;;;;2.08;0.47;;;16.10;99.90;;;;;;5031168;28;20654;-74
2022/08/09 03:53:46;;;;;;;2.65;0.50;;;16.10;99.90;;;;;;5032412;28;20191;-73
2022/08/09 03:56:17;;;;;;;2.42;0.20;;;16.20;99.90;;;;;;5030291;28;20237;-72
2022/08/09 03:58:48;;;;;;;1.13;0.30;;;16.10;99.90;;;;;;5031678;28;20212;-74
2022/08/09 04:01:21;;;;;;;1.08;0.50;;;16.10;99.90;;;;;;5031003;28;20196;-74
2022/08/09 04:03:52;;;;;;;2.05;0.50;;;16.20;99.90;;;;;;5031610;28;20579;-74
2022/08/09 04:06:23;;;;;;;0.60;0.43;;;16.30;99.90;;;;;;5032066;28;20229;-74
2022/08/09 04:08:55;;;;;;;2.20;0.50;;;16.30;99.90;;;;;;5036554;28;20568;-75
2022/08/09 04:11:25;;;;;;;2.45;0.50;;;16.30;99.90;;;;;;5032218;28;20277;-74
2022/08/09 04:13:56;;;;;;;1.15;0.35;;;16.20;99.90;;;;;;5027019;28;20229;-74
2022/08/09 04:16:29;;;;;;;1.30;0.30;;;16.10;99.90;;;;;;5030180;28;20214;-74
2022/08/09 04:19:00;;;;;;;4.22;0.30;;;16.00;99.90;;;;;;5031593;28;20228;-74
2022/08/09 04:21:30;;;;;;;1.30;0.40;;;16.00;99.90;;;;;;5031886;28;20198;-73
2022/08/09 04:24:01;;;;;;;2.22;0.57;;;16.00;99.90;;;;;;5031361;28;20212;-73
2022/08/09 04:26:32;;;;;;;1.55;0.40;;;16.00;99.90;;;;;;5031868;28;20205;-73
2022/08/09 04:29:03;;;;;;;1.35;0.40;;;16.00;99.90;;;;;;5034187;28;20200;-75
2022/08/09 04:31:35;;;;;;;2.42;0.50;;;15.90;99.90;;;;;;5029321;28;20189;-73
2022/08/09 04:34:06;;;;;;;1.23;0.40;;;16.00;99.90;;;;;;5026506;28;20244;-74
2022/08/09 04:36:37;;;;;;;0.60;0.60;;;15.80;99.90;;;;;;5028487;28;20217;-74
2022/08/09 04:39:09;;;;;;;0.43;0.30;;;15.70;99.90;;;;;;5026449;28;20234;-74
2022/08/09 04:41:40;;;;;;;1.63;0.50;;;15.60;99.90;;;;;;5015330;28;20203;-74
2022/08/09 04:44:11;;;;;;;0.85;0.40;;;15.60;99.90;;;;;;5024855;28;20213;-74
2022/08/09 04:46:44;;;;;;;2.00;0.43;;;15.60;99.90;;;;;;5032254;28;20651;-75
2022/08/09 04:49:15;;;;;;;3.40;0.57;;;15.70;99.90;;;;;;5027728;28;20191;-74
2022/08/09 04:51:46;;;;;;;3.33;0.40;;;15.70;99.90;;;;;;5028375;28;20194;-72
2022/08/09 04:54:17;;;;;;;2.38;0.32;;;15.70;99.90;;;;;;5031653;28;20292;-72
2022/08/09 04:56:48;;;;;;;7.60;1.17;;;15.70;99.90;;;;;;5030754;28;20731;-75
2022/08/09 04:59:19;;;;;;;0.88;0.38;;;15.70;99.90;;;;;;5027118;28;20696;-74
2022/08/09 05:01:52;;;;;;;2.15;0.43;;;15.70;99.90;;;;;;5031182;28;20186;-73
2022/08/09 05:04:23;;;;;;;1.70;0.50;;;15.80;99.90;;;;;;5033799;28;20190;-75
2022/08/09 05:06:53;;;;;;;1.20;0.30;;;15.80;99.90;;;;;;5030623;28;20659;-74
2022/08/09 05:09:24;;;;;;;2.53;0.65;;;15.70;99.90;;;;;;5030543;28;20201;-73
2022/08/09 05:11:55;;;;;;;3.25;0.60;;;15.70;99.90;;;;;;5035355;28;20201;-73
2022/08/09 05:14:26;;;;;;;1.75;0.30;;;15.50;99.90;;;;;;5034684;28;20194;-74
2022/08/09 05:16:59;;;;;;;5.65;0.57;;;15.50;99.90;;;;;;5033794;28;20214;-74
2022/08/09 05:19:30;;;;;;;4.38;0.70;;;15.50;99.90;;;;;;5035394;28;20190;-74
2022/08/09 05:22:01;;;;;;;4.05;0.60;;;15.50;99.90;;;;;;5035130;28;20209;-72
2022/08/09 05:24:32;;;;;;;1.92;0.50;;;15.60;99.90;;;;;;5027753;28;20558;-77
2022/08/09 05:27:03;;;;;;;3.10;0.50;;;15.70;99.90;;;;;;5022885;28;20198;-75
2022/08/09 05:29:34;;;;;;;1.33;0.60;;;15.70;99.90;;;;;;5033451;28;20191;-74
2022/08/09 05:32:07;;;;;;;2.25;0.60;;;15.60;99.90;;;;;;5035856;28;20695;-74
2022/08/09 05:34:38;;;;;;;3.75;0.57;;;15.50;99.90;;;;;;5035035;28;20186;-73
2022/08/09 05:37:09;;;;;;;1.75;0.60;;;15.50;99.90;;;;;;5034648;28;20218;-73
2022/08/09 05:39:42;;;;;;;5.28;0.68;;;15.50;99.90;;;;;;5031991;28;20230;-73
2022/08/09 05:42:14;;;;;;;2.72;0.60;;;15.40;99.90;;;;;;5034590;28;20195;-75
2022/08/09 05:44:45;;;;;;;4.47;0.50;;;15.40;99.90;;;;;;5034627;28;20225;-76
2022/08/09 05:47:18;;;;;;;1.65;0.40;;;15.40;99.90;;;;;;5034937;28;20198;-77
2022/08/09 05:49:48;;;;;;;2.17;0.60;;;15.40;99.90;;;;;;5035823;28;20206;-75
2022/08/09 05:52:19;;;;;;;3.33;0.50;;;15.30;99.90;;;;;;5034376;28;20198;-78
2022/08/09 05:54:50;;;;;;;1.70;0.50;;;15.20;99.90;;;;;;5034688;28;20190;-78
2022/08/09 05:57:21;;;;;;;3.10;0.60;;;15.20;99.90;;;;;;5034374;28;20228;-77
2022/08/09 05:59:52;;;;;;;3.70;0.60;;;15.30;99.90;;;;;;5033984;28;20201;-77
2022/08/09 06:02:24;;;;;;;1.58;0.60;;;15.40;99.90;;;;;;5031733;28;20195;-76
2022/08/09 06:04:55;;;;;;;4.05;0.60;;;15.30;99.90;;;;;;5034301;28;20656;-76
2022/08/09 06:07:26;;;;;;;3.08;0.60;;;15.20;99.90;;;;;;5034732;28;20563;-77
2022/08/09 06:10:00;;;;;;;1.50;0.40;;;15.10;99.90;;;;;;5032601;28;20202;-77
2022/08/09 06:12:31;;;;;;;1.27;0.47;;;15.00;99.90;;;;;;5033391;28;20202;-74
2022/08/09 06:15:02;;;;;;;1.02;0.60;;;14.90;99.90;;;;;;5032340;28;20221;-79
2022/08/09 06:17:35;;;;;;;2.33;0.50;;;14.80;99.90;;;;;;5033843;28;20195;-78
2022/08/09 06:20:06;;;;;;;0.75;0.40;;;14.70;99.90;;;;;;5034106;28;20375;-77
2022/08/09 06:22:38;;;;;;;6.18;0.50;;;14.70;99.90;;;;;;5033563;28;20276;-74
2022/08/09 06:25:09;;;;;;;2.97;0.50;;;14.60;99.90;;;;;;5036969;28;20194;-76
2022/08/09 06:27:40;;;;;;;1.63;0.40;;;14.60;99.90;;;;;;5031208;28;20271;-77
2022/08/09 06:30:12;;;;;;;3.92;0.57;;;14.60;99.90;;;;;;5031623;28;20217;-74
2022/08/09 06:32:45;;;;;;;2.25;0.50;;;14.60;99.90;;;;;;5024995;28;20681;-74
2022/08/09 06:35:16;;;;;;;0.85;0.50;;;14.60;99.90;;;;;;5031605;28;20202;-77
2022/08/09 06:37:46;;;;;;;1.60;0.60;;;14.60;99.90;;;;;;5032257;28;20229;-77
2022/08/09 06:40:17;;;;;;;2.00;0.57;;;14.70;99.90;;;;;;5031241;28;20233;-76
2022/08/09 06:42:48;;;;;;;1.52;0.40;;;14.70;99.90;;;;;;5030090;28;20194;-76
2022/08/09 06:45:18;;;;;;;1.10;0.50;;;14.60;99.90;;;;;;5031381;28;20195;-76
2022/08/09 06:47:51;;;;;;;1.83;0.50;;;14.60;99.90;;;;;;5031571;28;20289;-77
2022/08/09 06:50:22;;;;;;;2.92;0.50;;;14.40;99.90;;;;;;5031413;28;20201;-78
2022/08/09 06:52:53;;;;;;;0.57;0.40;;;14.30;99.90;;;;;;5030261;28;20658;-78
2022/08/09 06:55:28;;;;;;;2.13;0.40;;;14.30;99.90;;;;;;5030049;28;20226;-78
2022/08/09 06:57:59;;;;;;;2.15;0.60;;;14.10;99.90;;;;;;5033753;28;20279;-77
2022/08/09 07:00:30;;;;;;;2.03;0.40;;;14.10;99.90;;;;;;5033557;28;20186;-76
2022/08/09 07:03:03;;;;;;;5.68;0.70;;;14.00;99.90;;;;;;5032434;28;20206;-77
2022/08/09 07:05:34;;;;;;;1.35;0.50;;;14.00;99.90;;;;;;5032977;28;20220;-76
2022/08/09 07:08:04;;;;;;;1.85;0.30;;;14.00;99.90;;;;;;5028300;28;20208;-77
2022/08/09 07:10:35;;;;;;;4.18;0.57;;;13.90;99.90;;;;;;5033099;28;20202;-77
2022/08/09 07:13:06;;;;;;;2.20;0.40;;;13.90;99.90;;;;;;5031871;28;20209;-76
2022/08/09 07:15:37;;;;;;;1.25;0.47;;;13.80;99.90;;;;;;5031297;28;20197;-76
2022/08/09 07:18:09;;;;;;;2.50;0.60;;;13.80;99.90;;;;;;5031634;28;20202;-77
2022/08/09 07:20:40;;;;;;;3.65;0.40;;;13.80;99.90;;;;;;5028802;28;20687;-77
2022/08/09 07:23:11;;;;;;;0.50;0.35;;;13.70;99.90;;;;;;5025040;28;20194;-77
2022/08/09 07:25:42;;;;;;;1.58;0.45;;;13.60;99.90;;;;;;5028505;28;20213;-77
2022/08/09 07:28:13;;;;;;;1.45;0.40;;;13.60;99.90;;;;;;5031056;28;20210;-77
2022/08/09 07:30:44;;;;;;;1.05;0.40;;;13.50;99.90;;;;;;5030968;28;20198;-75
2022/08/09 07:33:16;;;;;;;3.72;0.70;;;13.50;99.90;;;;;;5026792;28;20206;-76
2022/08/09 07:38:12;;;;;;;1.08;0.30;;;13.40;99.90;;;;;;5047814;22;20306;-76
2022/08/09 07:40:43;;;;;;;2.10;0.38;;;13.30;99.90;;;;;;5046128;28;20199;-78
2022/08/09 07:43:14;;;;;;;0.57;0.30;;;13.30;99.90;;;;;;5053894;28;20250;-77
2022/08/09 07:45:45;;;;;;;0.70;0.38;;;13.20;99.90;;;;;;5061169;28;20193;-76
2022/08/09 07:48:17;;;;;;;0.70;0.40;;;13.20;99.90;;;;;;5060515;28;20198;-78
2022/08/09 07:50:48;;;;;;;1.50;0.40;;;13.10;99.90;;;;;;5060067;28;20598;-76
2022/08/09 07:53:19;;;;;;;1.75;0.63;;;13.10;99.90;;;;;;5056607;28;20562;-76
2022/08/09 07:55:50;;;;;;;0.77;0.38;;;13.10;99.90;;;;;;5046925;28;20559;-74
2022/08/09 07:58:21;;;;;;;0.40;0.40;;;13.10;99.90;;;;;;5050121;28;20662;-76
2022/08/09 08:00:52;;;;;;;0.90;0.50;;;13.10;99.90;;;;;;5050350;28;20225;-76
2022/08/09 08:03:25;;;;;;;1.48;0.68;;;13.00;99.90;;;;;;5055032;28;20229;-77
2022/08/09 08:05:56;;;;;;;1.08;0.50;;;13.00;99.90;;;;;;5058114;28;20205;-78
2022/08/09 08:08:26;;;;;;;0.35;0.30;;;13.00;99.90;;;;;;5055534;28;20216;-76
2022/08/09 08:10:57;;;;;;;0.63;0.43;;;13.00;99.90;;;;;;5049774;28;20208;-78
2022/08/09 08:13:28;;;;;;;0.40;0.30;;;12.90;99.90;;;;;;5044617;28;20193;-78
2022/08/09 08:15:59;;;;;;;0.85;0.38;;;12.90;99.90;;;;;;5051195;28;20363;-78
2022/08/09 08:18:32;;;;;;;1.77;0.43;;;12.90;99.90;;;;;;5049525;28;20193;-77
2022/08/09 08:21:02;;;;;;;0.40;0.40;;;12.90;99.90;;;;;;5051166;28;20204;-77
2022/08/09 08:23:33;;;;;;;0.40;0.40;;;12.90;99.90;;;;;;5050170;28;20207;-76
2022/08/09 08:26:04;;;;;;;0.88;0.50;;;12.90;99.90;;;;;;5050409;28;20231;-77
2022/08/09 08:28:35;;;;;;;1.63;0.60;;;12.90;99.90;;;;;;5047776;28;20197;-75
2022/08/09 08:31:06;;;;;;;1.08;0.63;;;12.90;99.90;;;;;;5052299;28;20201;-76
2022/08/09 08:33:38;;;;;;;0.50;0.50;;;12.90;99.90;;;;;;5050242;28;20198;-74
2022/08/09 08:36:09;;;;;;;1.25;0.80;;;12.80;99.90;;;;;;5047050;28;20234;-77
2022/08/09 08:38:41;;;;;;;1.15;0.52;;;12.80;99.90;;;;;;5037253;28;20296;-76
2022/08/09 08:41:12;;;;;;;1.63;0.57;;;12.80;99.90;;;;;;5049395;28;20185;-77
2022/08/09 08:43:43;;;;;;;0.88;0.47;;;12.80;99.90;;;;;;5039258;28;20194;-78
2022/08/09 08:46:16;;;;;;;2.10;0.60;;;12.80;99.90;;;;;;5050955;28;20190;-76
2022/08/09 08:48:49;;;;;;;4.35;0.60;;;12.80;99.90;;;;;;5041905;28;20670;-77
2022/08/09 08:51:21;;;;;;;1.00;0.68;;;12.80;99.90;;;;;;5033859;28;20202;-78
2022/08/09 08:53:53;;;;;;;1.10;0.65;;;12.80;99.90;;;;;;5036868;28;20202;-76
2022/08/09 08:56:24;;;;;;;2.05;0.82;;;12.70;99.90;;;;;;5033975;28;20209;-76
2022/08/09 08:58:55;;;;;;;1.40;0.77;;;12.80;99.90;;;;;;5041516;28;20209;-77
2022/08/09 09:01:26;;;;;;;1.92;0.80;;;12.80;99.90;;;;;;5039849;28;20209;-79
2022/08/09 09:04:00;;;;;;;2.65;0.60;;;12.80;99.90;;;;;;5032521;28;20198;-80
2022/08/09 09:06:34;;;;;;;0.82;0.52;;;12.80;99.90;;;;;;5035157;28;20249;-77
2022/08/09 09:09:07;;;;;;;0.60;0.55;;;12.80;99.90;;;;;;5032361;28;20212;-77
2022/08/09 09:11:38;;;;;;;2.22;0.65;;;12.70;99.90;;;;;;5035503;28;20202;-74
2022/08/09 09:14:19;;;;;;;2.05;0.60;;;12.70;99.90;;;;;;5027395;28;20205;-76
2022/08/09 09:16:50;;;;;;;0.70;0.50;;;12.70;99.90;;;;;;5032541;28;20555;-74
2022/08/09 09:19:23;;;;;;;1.38;0.50;;;12.70;99.90;;;;;;5030716;28;20191;-74
2022/08/09 09:22:05;;;;;;;1.50;0.60;;;12.70;99.90;;;;;;5039825;28;20204;-76
2022/08/09 09:24:39;;;;;;;0.63;0.52;;;12.60;99.90;;;;;;5042789;28;20186;-77
2022/08/09 09:27:11;;;;;;;1.58;0.50;;;12.60;99.90;;;;;;5036349;28;20666;-76
2022/08/09 09:29:43;;;;;;;0.93;0.60;;;12.60;99.90;;;;;;5033696;28;20198;-76
2022/08/09 09:32:19;;;;;;;1.10;0.55;;;12.60;99.90;;;;;;5037046;28;20194;-77
2022/08/09 09:37:48;;;;;;;1.77;0.60;;;12.60;99.90;;;;;;5083415;27;20592;-77
2022/08/09 09:40:19;;;;;;;1.58;0.60;;;12.60;99.90;;;;;;5081137;28;20214;-77
2022/08/09 09:43:00;;;;;;;0.75;0.50;;;12.50;99.90;;;;;;5084901;28;20193;-76
2022/08/09 09:45:32;;;;;;;2.00;0.70;;;12.60;99.90;;;;;;5079661;28;20238;-78
2022/08/09 09:48:06;;;;;;;4.13;0.80;;;12.60;99.90;;;;;;5089284;28;20291;-78
2022/08/09 09:50:44;;;;;;;2.35;0.80;;;12.60;99.90;;;;;;5082406;28;20192;-79
2022/08/09 09:53:20;;;;;;;1.15;0.60;;;12.60;99.90;;;;;;5085811;28;20280;-77
2022/08/09 09:55:56;;;;;;;0.60;0.60;;;12.60;99.90;;;;;;5088919;28;20735;-77
2022/08/09 09:58:27;;;;;;;0.60;0.52;;;12.60;99.90;;;;;;5088510;28;20249;-77
2022/08/09 10:00:59;;;;;;;0.68;0.55;;;12.60;99.90;;;;;;5089227;28;20539;-75
2022/08/09 10:03:43;;;;;;;0.63;0.50;;;12.60;99.90;;;;;;5087212;28;20205;-75
2022/08/09 10:06:14;;;;;;;0.63;0.45;;;12.60;99.90;;;;;;5088645;28;20220;-76
2022/08/09 10:08:48;;;;;;;1.00;0.55;;;12.60;99.90;;;;;;5087182;28;20662;-76
2022/08/09 10:11:24;;;;;;;1.08;0.63;;;12.50;99.90;;;;;;5091701;28;20200;-77
2022/08/09 10:13:54;;;;;;;1.67;0.50;;;12.50;99.90;;;;;;5082273;28;20192;-79
2022/08/09 10:16:35;;;;;;;1.00;0.40;;;12.40;99.90;;;;;;5087117;28;20239;-78
2022/08/09 10:19:09;;;;;;;2.50;0.60;;;12.30;99.90;;;;;;5084513;28;20200;-81
2022/08/09 10:21:48;;;;;;;1.55;0.50;;;12.20;99.90;;;;;;5082289;28;20188;-80
2022/08/09 10:24:21;;;;;;;0.90;0.43;;;12.20;99.90;;;;;;5088938;28;20184;-81
2022/08/09 10:26:55;;;;;;;2.03;0.70;;;12.00;99.90;;;;;;5078649;28;20676;-80
2022/08/09 10:29:26;;;;;;;1.15;0.70;;;12.00;99.90;;;;;;5085578;28;20206;-80
2022/08/09 10:31:57;;;;;;;1.20;0.60;;;12.00;99.90;;;;;;5077170;28;20200;-80
2022/08/09 10:34:28;;;;;;;1.75;0.57;;;12.00;99.90;;;;;;5088446;28;20185;-80
2022/08/09 10:36:59;;;;;;;0.95;0.60;;;12.00;99.90;;;;;;5078367;28;20255;-80
2022/08/09 10:39:32;;;;;;;1.92;0.55;;;11.90;99.90;;;;;;5086512;28;20200;-80
2022/08/09 10:42:03;;;;;;;1.30;0.70;;;11.90;99.90;;;;;;5083051;28;20216;-80
2022/08/09 10:44:35;;;;;;;1.17;0.57;;;11.80;99.90;;;;;;5083616;28;20196;-79
2022/08/09 10:47:23;;;;;;;0.50;0.50;;;11.80;99.90;;;;;;5082627;28;20656;-80
2022/08/09 10:50:05;;;;;;;1.65;0.60;;;11.70;99.90;;;;;;5067910;28;20193;-79
2022/08/09 10:53:00;;;;;;;1.45;0.63;;;11.70;99.90;;;;;;5072501;28;20663;-74
2022/08/09 10:55:35;;;;;;;0.90;0.50;;;11.70;99.90;;;;;;5070787;28;20200;-78
2022/08/09 10:58:06;;;;;;;4.20;0.50;;;11.70;99.90;;;;;;5067996;28;20223;-81
2022/08/09 11:00:39;;;;;;;1.13;0.60;;;11.70;99.90;;;;;;5076309;28;20189;-81
2022/08/09 11:03:25;;;;;;;1.23;0.85;;;11.70;99.90;;;;;;5062140;28;20196;-81
2022/08/09 11:06:20;;;;;;;1.98;1.40;;;11.70;99.90;;;;;;5073369;28;20660;-81
2022/08/09 11:08:52;;;;;;;2.40;1.20;;;11.70;99.90;;;;;;5069677;28;20208;-82
2022/08/09 11:11:26;;;;;;;2.92;1.02;;;11.70;99.90;;;;;;5074955;28;20231;-73
2022/08/09 11:14:32;;;;;;;2.35;0.88;;;11.60;99.90;;;;;;5074834;28;20184;-82
2022/08/09 11:17:04;;;;;;;1.25;0.70;;;11.60;99.90;;;;;;5073402;28;20232;-81
2022/08/09 11:19:55;;;;;;;1.95;1.00;;;11.60;99.90;;;;;;5074741;28;20193;-80
2022/08/09 11:23:04;;;;;;;1.63;0.80;;;11.60;99.90;;;;;;5068278;28;20266;-80
2022/08/09 11:25:43;;;;;;;1.45;0.57;;;11.60;99.90;;;;;;5066892;28;20204;-74
2022/08/09 11:28:41;;;;;;;2.20;0.70;;;11.60;99.90;;;;;;5066499;28;20197;-79
2022/08/09 11:31:44;;;;;;;1.95;0.68;;;11.50;99.90;;;;;;5073678;28;20204;-83
2022/08/09 11:34:43;;;;;;;0.65;0.65;;;11.50;99.90;;;;;;5072385;28;20231;-81
2022/08/09 11:37:28;;;;;;;1.85;0.90;;;11.50;99.90;;;;;;5072250;28;20244;-80
2022/08/09 11:40:06;;;;;;;0.77;0.77;;;11.40;99.90;;;;;;5070187;28;20239;-81
2022/08/09 11:42:50;;;;;;;1.10;0.80;;;11.40;99.90;;;;;;5072850;28;20188;-80
2022/08/09 11:45:28;;;;;;;2.47;0.93;;;11.40;99.90;;;;;;5063315;28;20193;-76
2022/08/09 11:48:00;;;;;;;1.00;0.90;;;11.30;99.90;;;;;;5071105;28;20593;-83
2022/08/09 11:50:31;;;;;;;1.42;0.95;;;11.50;99.90;;;;;;5068386;28;20212;-81
2022/08/09 11:53:22;;;;;;;1.58;0.80;;;11.40;99.90;;;;;;5072139;28;20197;-80
2022/08/09 11:55:54;;;;;;;0.80;0.68;;;11.40;99.90;;;;;;5072331;28;20530;-81
2022/08/09 11:58:46;;;;;;;2.60;0.80;;;11.40;99.90;;;;;;5065442;28;20193;-80
2022/08/09 12:01:20;;;;;;;0.68;0.60;;;11.30;99.90;;;;;;5072990;28;20626;-81
2022/08/09 12:03:59;;;;;;;1.70;0.50;;;11.30;99.90;;;;;;5079002;28;20203;-80
2022/08/09 12:06:31;;;;;;;0.80;0.68;;;11.30;99.90;;;;;;5065809;28;20192;-80
2022/08/09 12:09:04;;;;;;;2.42;0.90;;;11.30;99.90;;;;;;5074649;28;20189;-94
2022/08/09 12:11:35;;;;;;;1.25;0.70;;;11.30;99.90;;;;;;5075452;28;20189;-93
2022/08/09 12:14:09;;;;;;;1.92;0.70;;;11.20;99.90;;;;;;5075564;28;20189;-91
2022/08/09 12:16:43;;;;;;;3.13;0.70;;;11.30;99.90;;;;;;5073041;28;20610;-83
2022/08/09 12:19:14;;;;;;;2.47;1.00;;;11.20;99.90;;;;;;5073295;28;20193;-94
2022/08/09 12:21:50;;;;;;;4.55;1.05;;;11.20;99.90;;;;;;5067699;28;20640;-85
2022/08/09 12:24:24;;;;;;;1.75;0.93;;;11.20;99.90;;;;;;5071557;28;20200;-87
2022/08/09 12:26:58;;;;;;;2.65;0.90;;;11.20;99.90;;;;;;5066681;28;20611;-86
2022/08/09 12:29:31;;;;;;;2.38;1.23;;;11.20;99.90;;;;;;5064293;28;21717;-89
2022/08/09 12:32:09;;;;;;;1.80;0.90;;;11.20;99.90;;;;;;5071669;28;20280;-86
2022/08/09 12:34:41;;;;;;;2.03;1.00;;;11.20;99.90;;;;;;5071850;28;20203;-84
2022/08/09 12:37:12;;;;;;;2.20;0.98;;;11.20;99.90;;;;;;5064864;28;20243;-86
2022/08/09 12:39:43;;;;;;;2.28;0.98;;;11.20;99.90;;;;;;5071952;28;20228;-87
2022/08/09 12:42:16;;;;;;;1.75;1.00;;;11.20;99.90;;;;;;5073259;28;20189;-82
2022/08/09 12:44:47;;;;;;;2.00;0.80;;;11.20;99.90;;;;;;5065855;28;20188;-78
2022/08/09 12:47:20;;;;;;;1.65;0.82;;;11.20;99.90;;;;;;5072097;28;20196;-78
2022/08/09 12:52:41;;;;;;;2.80;0.80;;;11.20;99.90;;;;;;5071449;28;20299;-74
2022/08/09 12:55:12;;;;;;;1.60;0.80;;;11.10;99.90;;;;;;5069448;28;20197;-81
2022/08/09 12:57:46;;;;;;;0.98;0.90;;;11.10;99.90;;;;;;5062655;28;20224;-74
2022/08/09 13:00:20;;;;;;;3.30;0.90;;;11.10;99.90;;;;;;5068448;28;20197;-77
2022/08/09 13:02:58;;;;;;;1.48;0.90;;;11.10;99.90;;;;;;5070609;28;20204;-81
2022/08/09 13:05:41;;;;;;;1.23;0.80;;;11.10;99.90;;;;;;5064159;28;20212;-81
2022/08/09 13:08:16;;;;;;;1.08;0.77;;;11.10;99.90;;;;;;5070879;28;20197;-79
2022/08/09 13:10:49;;;;;;;1.08;0.85;;;11.00;99.90;;;;;;5070529;28;20211;-78
2022/08/09 13:13:29;;;;;;;3.40;0.88;;;11.00;99.90;;;;;;5070612;28;20193;-82
2022/08/09 13:16:01;;;;;;;1.45;0.90;;;11.00;99.90;;;;;;5057775;28;20196;-80
2022/08/09 13:18:44;;;;;;;1.85;1.00;;;11.00;99.90;;;;;;5068939;28;20220;-81
2022/08/09 13:21:22;;;;;;;1.33;0.70;;;10.90;99.90;;;;;;5059035;28;20618;-79
2022/08/09 13:24:01;;;;;;;1.63;0.80;;;10.90;99.90;;;;;;5068010;28;20600;-80
2022/08/09 13:26:40;;;;;;;2.13;0.70;;;10.90;99.90;;;;;;5070572;28;20196;-80
2022/08/09 13:29:16;;;;;;;3.53;0.70;;;10.90;99.90;;;;;;5065972;28;20684;-80